Ellis, Kansas
Current Conditions -  °F | °C
As of 9:15 PM on Wednesday 22 Oct 2014 (Local Time) from KHYS Reporting Station
Thunderstorm Thunderstorm  
Wind Chill: 61°   Ceiling: 6000
Heat Index: 61°   Visibility: 10mi
Dew Point: 54°   Wind: 13mph
Humidity: 77%   Direction: 190°S
Pressure: 30.05"   Gusts: NA
Location:  38.94°N, 99.56°W
Report Text: KHYS 230215Z AUTO 19011KT 10SM VCTS FEW047 BKN060 16/12 A3005 RMK AO1 LTG DSNT S TSB02E03B04
Loading
Personal Weather Stations






























Interactive Weather Map
Tropical Storm Tracking
New forecast layout! Learn more

10-Day Weather Forecast

Advertisements
Track Severe Weather on mobile